sensor_id;sensor_type;location;lat;lon;timestamp;noise_LAeq;noise_LA_min;noise_LA_max;noise_LA01;noise_LA95
61321;Laerm;17737;52.586;13.284;2023-07-20T00:00:00;51.91;50.40;57.49;;
61321;Laerm;17737;52.586;13.284;2023-07-20T00:02:28;51.92;50.56;66.84;;
61321;Laerm;17737;52.586;13.284;2023-07-20T00:04:56;51.89;50.58;55.39;;
61321;Laerm;17737;52.586;13.284;2023-07-20T00:07:25;51.90;50.56;56.02;;
61321;Laerm;17737;52.586;13.284;2023-07-20T00:09:53;53.19;50.69;63.82;;
61321;Laerm;17737;52.586;13.284;2023-07-20T00:12:21;51.91;50.69;57.04;;
61321;Laerm;17737;52.586;13.284;2023-07-20T00:14:49;53.16;50.84;62.97;;
61321;Laerm;17737;52.586;13.284;2023-07-20T00:17:21;52.10;50.57;56.60;;
61321;Laerm;17737;52.586;13.284;2023-07-20T00:19:49;51.98;50.77;67.54;;
61321;Laerm;17737;52.586;13.284;2023-07-20T00:22:17;51.99;50.67;55.92;;
61321;Laerm;17737;52.586;13.284;2023-07-20T00:24:45;52.05;50.42;56.46;;
61321;Laerm;17737;52.586;13.284;2023-07-20T00:27:13;53.31;50.60;61.37;;
61321;Laerm;17737;52.586;13.284;2023-07-20T00:29:41;52.48;50.82;57.24;;
61321;Laerm;17737;52.586;13.284;2023-07-20T00:32:09;52.06;50.78;55.56;;
61321;Laerm;17737;52.586;13.284;2023-07-20T00:34:39;52.00;50.58;55.81;;
61321;Laerm;17737;52.586;13.284;2023-07-20T00:37:07;52.03;50.54;66.63;;
61321;Laerm;17737;52.586;13.284;2023-07-20T00:39:35;53.31;50.51;66.48;;
61321;Laerm;17737;52.586;13.284;2023-07-20T00:42:03;52.07;50.68;56.88;;
61321;Laerm;17737;52.586;13.284;2023-07-20T00:44:32;52.08;50.68;68.27;;
61321;Laerm;17737;52.586;13.284;2023-07-20T00:46:59;52.06;50.65;56.23;;
61321;Laerm;17737;52.586;13.284;2023-07-20T00:49:28;52.13;50.81;55.75;;
61321;Laerm;17737;52.586;13.284;2023-07-20T00:52:01;52.09;50.63;54.84;;
61321;Laerm;17737;52.586;13.284;2023-07-20T00:54:29;52.82;50.57;62.10;;
61321;Laerm;17737;52.586;13.284;2023-07-20T00:56:58;52.29;50.84;68.01;;
61321;Laerm;17737;52.586;13.284;2023-07-20T00:59:27;52.02;50.70;67.68;;
61321;Laerm;17737;52.586;13.284;2023-07-20T01:01:55;52.52;50.76;58.55;;
61321;Laerm;17737;52.586;13.284;2023-07-20T01:04:23;52.08;50.59;56.81;;
61321;Laerm;17737;52.586;13.284;2023-07-20T01:07:05;52.20;50.88;57.41;;
61321;Laerm;17737;52.586;13.284;2023-07-20T01:09:44;55.38;50.97;72.99;;
61321;Laerm;17737;52.586;13.284;2023-07-20T01:12:23;52.22;50.94;57.66;;
61321;Laerm;17737;52.586;13.284;2023-07-20T01:14:53;52.66;51.03;60.38;;
61321;Laerm;17737;52.586;13.284;2023-07-20T01:17:22;52.25;50.93;67.52;;
61321;Laerm;17737;52.586;13.284;2023-07-20T01:19:51;52.26;50.84;67.57;;
61321;Laerm;17737;52.586;13.284;2023-07-20T01:22:48;52.53;50.86;61.18;;
61321;Laerm;17737;52.586;13.284;2023-07-20T01:25:35;52.05;50.49;56.02;;
61321;Laerm;17737;52.586;13.284;2023-07-20T01:28:37;52.23;50.71;67.00;;
61321;Laerm;17737;52.586;13.284;2023-07-20T01:31:24;52.07;50.64;57.97;;
61321;Laerm;17737;52.586;13.284;2023-07-20T01:33:56;52.07;50.82;54.91;;
61321;Laerm;17737;52.586;13.284;2023-07-20T01:36:30;52.16;50.70;56.99;;
61321;Laerm;17737;52.586;13.284;2023-07-20T01:38:59;52.62;50.95;61.28;;
61321;Laerm;17737;52.586;13.284;2023-07-20T01:41:28;52.25;50.99;55.27;;
61321;Laerm;17737;52.586;13.284;2023-07-20T01:43:57;52.29;51.09;56.73;;
61321;Laerm;17737;52.586;13.284;2023-07-20T01:46:28;53.03;51.07;58.84;;
61321;Laerm;17737;52.586;13.284;2023-07-20T01:48:56;52.41;50.89;67.82;;
61321;Laerm;17737;52.586;13.284;2023-07-20T01:51:25;52.32;50.97;55.54;;
61321;Laerm;17737;52.586;13.284;2023-07-20T01:53:53;52.92;50.96;60.72;;
61321;Laerm;17737;52.586;13.284;2023-07-20T01:56:21;52.28;50.78;56.46;;
61321;Laerm;17737;52.586;13.284;2023-07-20T01:58:49;52.31;50.87;55.79;;
61321;Laerm;17737;52.586;13.284;2023-07-20T02:01:17;52.39;50.71;56.20;;
61321;Laerm;17737;52.586;13.284;2023-07-20T02:03:47;52.72;50.73;60.76;;
61321;Laerm;17737;52.586;13.284;2023-07-20T02:06:15;52.19;50.64;68.33;;
61321;Laerm;17737;52.586;13.284;2023-07-20T02:08:43;52.17;50.80;55.46;;
61321;Laerm;17737;52.586;13.284;2023-07-20T02:11:11;52.11;50.59;55.71;;
61321;Laerm;17737;52.586;13.284;2023-07-20T02:13:39;52.13;50.66;57.01;;
61321;Laerm;17737;52.586;13.284;2023-07-20T02:16:07;52.21;50.84;56.22;;
61321;Laerm;17737;52.586;13.284;2023-07-20T02:18:35;52.09;50.74;55.77;;
61321;Laerm;17737;52.586;13.284;2023-07-20T02:21:04;52.16;50.71;56.40;;
61321;Laerm;17737;52.586;13.284;2023-07-20T02:23:33;52.18;50.47;67.87;;
61321;Laerm;17737;52.586;13.284;2023-07-20T02:26:01;52.22;50.85;56.26;;
61321;Laerm;17737;52.586;13.284;2023-07-20T02:28:29;52.13;50.75;55.79;;
61321;Laerm;17737;52.586;13.284;2023-07-20T02:30:57;52.06;50.57;56.58;;
61321;Laerm;17737;52.586;13.284;2023-07-20T02:33:27;52.96;50.74;59.48;;
61321;Laerm;17737;52.586;13.284;2023-07-20T02:35:55;52.17;50.80;56.04;;
61321;Laerm;17737;52.586;13.284;2023-07-20T02:38:24;53.29;50.16;68.28;;
61321;Laerm;17737;52.586;13.284;2023-07-20T02:40:52;52.19;50.60;67.18;;
61321;Laerm;17737;52.586;13.284;2023-07-20T02:43:20;52.15;50.70;56.52;;
61321;Laerm;17737;52.586;13.284;2023-07-20T02:45:50;52.38;50.78;57.46;;
61321;Laerm;17737;52.586;13.284;2023-07-20T02:48:18;52.14;50.97;53.43;;
61321;Laerm;17737;52.586;13.284;2023-07-20T02:50:46;52.19;50.79;57.56;;
61321;Laerm;17737;52.586;13.284;2023-07-20T02:53:14;52.59;51.06;58.32;;
61321;Laerm;17737;52.586;13.284;2023-07-20T02:55:43;52.71;50.93;60.32;;
61321;Laerm;17737;52.586;13.284;2023-07-20T02:58:11;53.10;50.90;67.37;;
61321;Laerm;17737;52.586;13.284;2023-07-20T03:00:39;52.62;50.87;57.06;;
61321;Laerm;17737;52.586;13.284;2023-07-20T03:03:10;52.17;50.80;55.91;;
61321;Laerm;17737;52.586;13.284;2023-07-20T03:05:41;53.39;50.91;66.94;;
61321;Laerm;17737;52.586;13.284;2023-07-20T03:08:09;52.76;50.91;56.98;;
61321;Laerm;17737;52.586;13.284;2023-07-20T03:10:40;52.87;50.80;60.06;;
61321;Laerm;17737;52.586;13.284;2023-07-20T03:13:10;52.35;50.71;56.36;;
61321;Laerm;17737;52.586;13.284;2023-07-20T03:15:39;52.72;50.82;57.10;;
61321;Laerm;17737;52.586;13.284;2023-07-20T03:18:07;52.69;51.04;57.96;;
61321;Laerm;17737;52.586;13.284;2023-07-20T03:20:35;53.08;50.98;57.71;;
61321;Laerm;17737;52.586;13.284;2023-07-20T03:23:04;53.13;51.00;57.78;;
61321;Laerm;17737;52.586;13.284;2023-07-20T03:25:32;52.55;51.04;56.49;;
61321;Laerm;17737;52.586;13.284;2023-07-20T03:28:00;52.90;50.98;59.36;;
61321;Laerm;17737;52.586;13.284;2023-07-20T03:30:29;53.57;50.84;58.69;;
61321;Laerm;17737;52.586;13.284;2023-07-20T03:32:57;53.28;50.99;68.19;;
61321;Laerm;17737;52.586;13.284;2023-07-20T03:35:25;52.52;50.95;56.27;;
61321;Laerm;17737;52.586;13.284;2023-07-20T03:37:53;52.63;50.73;57.00;;
61321;Laerm;17737;52.586;13.284;2023-07-20T03:40:21;52.95;50.93;58.70;;
61321;Laerm;17737;52.586;13.284;2023-07-20T03:42:49;53.93;50.95;62.81;;
61321;Laerm;17737;52.586;13.284;2023-07-20T03:45:17;53.58;50.84;61.73;;
61321;Laerm;17737;52.586;13.284;2023-07-20T03:47:46;53.77;51.15;59.95;;
61321;Laerm;17737;52.586;13.284;2023-07-20T03:50:15;52.94;50.93;57.37;;
61321;Laerm;17737;52.586;13.284;2023-07-20T03:52:43;53.01;50.88;61.23;;
61321;Laerm;17737;52.586;13.284;2023-07-20T03:55:11;53.34;50.94;60.51;;
61321;Laerm;17737;52.586;13.284;2023-07-20T03:57:39;53.51;50.65;59.43;;
61321;Laerm;17737;52.586;13.284;2023-07-20T04:00:09;53.27;50.97;58.82;;
61321;Laerm;17737;52.586;13.284;2023-07-20T04:02:39;53.78;50.93;63.15;;
61321;Laerm;17737;52.586;13.284;2023-07-20T04:05:08;54.14;51.02;60.45;;
61321;Laerm;17737;52.586;13.284;2023-07-20T04:07:36;53.99;50.84;67.69;;
61321;Laerm;17737;52.586;13.284;2023-07-20T04:10:05;53.13;50.83;60.02;;
61321;Laerm;17737;52.586;13.284;2023-07-20T04:12:34;54.23;51.25;67.80;;
61321;Laerm;17737;52.586;13.284;2023-07-20T04:15:02;53.83;51.09;63.26;;
61321;Laerm;17737;52.586;13.284;2023-07-20T04:17:30;56.12;50.82;69.75;;
61321;Laerm;17737;52.586;13.284;2023-07-20T04:19:58;53.62;51.00;60.29;;
61321;Laerm;17737;52.586;13.284;2023-07-20T04:22:28;54.83;51.03;62.27;;
61321;Laerm;17737;52.586;13.284;2023-07-20T04:24:56;54.22;50.91;60.01;;
61321;Laerm;17737;52.586;13.284;2023-07-20T04:27:24;53.84;50.84;59.62;;
61321;Laerm;17737;52.586;13.284;2023-07-20T04:29:52;53.99;50.88;62.31;;
61321;Laerm;17737;52.586;13.284;2023-07-20T04:32:21;53.07;50.60;58.48;;
61321;Laerm;17737;52.586;13.284;2023-07-20T04:34:48;53.98;50.64;60.72;;
61321;Laerm;17737;52.586;13.284;2023-07-20T04:37:16;55.24;51.01;62.73;;
61321;Laerm;17737;52.586;13.284;2023-07-20T04:39:46;54.10;50.87;64.93;;
61321;Laerm;17737;52.586;13.284;2023-07-20T04:42:14;54.03;50.91;66.77;;
61321;Laerm;17737;52.586;13.284;2023-07-20T04:44:43;55.50;50.72;64.72;;
61321;Laerm;17737;52.586;13.284;2023-07-20T04:47:11;54.84;51.38;61.16;;
61321;Laerm;17737;52.586;13.284;2023-07-20T04:49:39;54.52;50.90;64.58;;
61321;Laerm;17737;52.586;13.284;2023-07-20T04:52:07;55.24;50.93;63.20;;
61321;Laerm;17737;52.586;13.284;2023-07-20T04:54:36;53.63;50.98;59.41;;
61321;Laerm;17737;52.586;13.284;2023-07-20T04:57:11;55.86;50.68;73.24;;
61321;Laerm;17737;52.586;13.284;2023-07-20T04:59:40;53.09;50.78;59.60;;
61321;Laerm;17737;52.586;13.284;2023-07-20T05:02:08;53.81;50.57;62.69;;
61321;Laerm;17737;52.586;13.284;2023-07-20T05:04:36;54.69;50.92;65.61;;
61321;Laerm;17737;52.586;13.284;2023-07-20T05:07:05;53.41;50.40;66.86;;
61321;Laerm;17737;52.586;13.284;2023-07-20T05:09:33;54.29;51.17;61.08;;
61321;Laerm;17737;52.586;13.284;2023-07-20T05:12:01;52.83;50.69;58.72;;
61321;Laerm;17737;52.586;13.284;2023-07-20T05:14:30;54.99;50.84;62.57;;
61321;Laerm;17737;52.586;13.284;2023-07-20T05:16:58;53.78;50.98;68.74;;
61321;Laerm;17737;52.586;13.284;2023-07-20T05:19:26;54.52;51.22;63.58;;
61321;Laerm;17737;52.586;13.284;2023-07-20T05:21:54;54.50;51.02;62.38;;
61321;Laerm;17737;52.586;13.284;2023-07-20T05:24:22;54.09;50.96;63.15;;
61321;Laerm;17737;52.586;13.284;2023-07-20T05:26:50;55.10;51.14;62.42;;
61321;Laerm;17737;52.586;13.284;2023-07-20T05:29:18;52.98;50.92;59.41;;
61321;Laerm;17737;52.586;13.284;2023-07-20T05:31:47;54.56;51.13;62.85;;
61321;Laerm;17737;52.586;13.284;2023-07-20T05:34:15;54.43;51.19;67.52;;
61321;Laerm;17737;52.586;13.284;2023-07-20T05:36:43;54.19;51.28;59.03;;
61321;Laerm;17737;52.586;13.284;2023-07-20T05:39:11;54.37;51.09;59.88;;
61321;Laerm;17737;52.586;13.284;2023-07-20T05:41:39;54.79;50.94;62.29;;
61321;Laerm;17737;52.586;13.284;2023-07-20T05:44:07;54.98;50.86;64.14;;
61321;Laerm;17737;52.586;13.284;2023-07-20T05:46:34;54.23;51.08;61.64;;
61321;Laerm;17737;52.586;13.284;2023-07-20T05:49:23;54.08;50.80;61.91;;
61321;Laerm;17737;52.586;13.284;2023-07-20T05:51:51;53.80;50.80;66.57;;
61321;Laerm;17737;52.586;13.284;2023-07-20T05:54:19;54.80;50.89;62.04;;
61321;Laerm;17737;52.586;13.284;2023-07-20T05:56:47;54.36;50.78;64.15;;
61321;Laerm;17737;52.586;13.284;2023-07-20T05:59:16;54.62;50.93;62.72;;
61321;Laerm;17737;52.586;13.284;2023-07-20T06:01:44;53.65;50.62;62.02;;
61321;Laerm;17737;52.586;13.284;2023-07-20T06:04:12;54.54;50.70;61.06;;
61321;Laerm;17737;52.586;13.284;2023-07-20T06:06:41;54.40;51.17;64.60;;
61321;Laerm;17737;52.586;13.284;2023-07-20T06:09:09;57.26;52.01;76.15;;
61321;Laerm;17737;52.586;13.284;2023-07-20T06:11:39;53.61;50.86;58.12;;
61321;Laerm;17737;52.586;13.284;2023-07-20T06:14:07;53.15;50.80;57.79;;
61321;Laerm;17737;52.586;13.284;2023-07-20T06:16:35;54.57;50.69;61.08;;
61321;Laerm;17737;52.586;13.284;2023-07-20T06:19:03;53.22;50.92;57.89;;
61321;Laerm;17737;52.586;13.284;2023-07-20T06:21:31;53.99;50.85;60.62;;
61321;Laerm;17737;52.586;13.284;2023-07-20T06:24:00;53.28;50.89;58.46;;
61321;Laerm;17737;52.586;13.284;2023-07-20T06:26:28;53.15;50.84;64.86;;
61321;Laerm;17737;52.586;13.284;2023-07-20T06:28:57;55.55;51.06;65.06;;
61321;Laerm;17737;52.586;13.284;2023-07-20T06:31:24;55.95;51.65;64.04;;
61321;Laerm;17737;52.586;13.284;2023-07-20T06:33:52;56.30;51.49;64.00;;
61321;Laerm;17737;52.586;13.284;2023-07-20T06:36:20;58.76;53.80;65.51;;
61321;Laerm;17737;52.586;13.284;2023-07-20T06:38:49;57.68;52.29;69.14;;
61321;Laerm;17737;52.586;13.284;2023-07-20T06:41:21;54.98;51.36;66.67;;
61321;Laerm;17737;52.586;13.284;2023-07-20T06:43:52;53.91;50.83;68.14;;
61321;Laerm;17737;52.586;13.284;2023-07-20T06:46:25;53.73;50.89;67.47;;
61321;Laerm;17737;52.586;13.284;2023-07-20T06:48:54;53.89;51.06;64.37;;
61321;Laerm;17737;52.586;13.284;2023-07-20T06:51:26;53.74;50.53;66.86;;
61321;Laerm;17737;52.586;13.284;2023-07-20T06:53:55;53.15;50.52;61.59;;
61321;Laerm;17737;52.586;13.284;2023-07-20T06:56:24;54.31;50.86;61.10;;
61321;Laerm;17737;52.586;13.284;2023-07-20T06:58:54;52.97;50.77;59.61;;
61321;Laerm;17737;52.586;13.284;2023-07-20T07:01:22;54.66;50.88;62.96;;
61321;Laerm;17737;52.586;13.284;2023-07-20T07:03:50;52.96;50.60;57.39;;
61321;Laerm;17737;52.586;13.284;2023-07-20T07:06:22;53.68;50.90;58.86;;
61321;Laerm;17737;52.586;13.284;2023-07-20T07:08:52;53.32;50.91;64.39;;
61321;Laerm;17737;52.586;13.284;2023-07-20T07:11:21;54.09;50.85;65.83;;
61321;Laerm;17737;52.586;13.284;2023-07-20T07:13:51;53.55;50.79;60.11;;
61321;Laerm;17737;52.586;13.284;2023-07-20T07:16:23;53.82;50.76;61.61;;
61321;Laerm;17737;52.586;13.284;2023-07-20T07:18:51;52.87;50.68;58.94;;
61321;Laerm;17737;52.586;13.284;2023-07-20T07:21:19;53.59;50.63;58.83;;
61321;Laerm;17737;52.586;13.284;2023-07-20T07:23:48;53.69;50.83;59.31;;
61321;Laerm;17737;52.586;13.284;2023-07-20T07:26:16;53.59;50.79;59.93;;
61321;Laerm;17737;52.586;13.284;2023-07-20T07:28:44;54.24;50.73;62.33;;
61321;Laerm;17737;52.586;13.284;2023-07-20T07:31:13;53.92;50.58;62.34;;
61321;Laerm;17737;52.586;13.284;2023-07-20T07:33:41;53.64;50.84;63.00;;
61321;Laerm;17737;52.586;13.284;2023-07-20T07:36:09;53.99;50.76;60.02;;
61321;Laerm;17737;52.586;13.284;2023-07-20T07:38:37;53.22;50.62;59.37;;
61321;Laerm;17737;52.586;13.284;2023-07-20T07:41:25;53.97;50.75;61.10;;
61321;Laerm;17737;52.586;13.284;2023-07-20T07:43:53;54.57;50.74;63.24;;
61321;Laerm;17737;52.586;13.284;2023-07-20T07:46:23;52.87;50.32;58.05;;
61321;Laerm;17737;52.586;13.284;2023-07-20T07:48:51;53.55;50.45;60.85;;
61321;Laerm;17737;52.586;13.284;2023-07-20T07:51:19;53.32;50.62;58.62;;
61321;Laerm;17737;52.586;13.284;2023-07-20T07:53:47;53.72;50.50;59.33;;
61321;Laerm;17737;52.586;13.284;2023-07-20T07:56:16;53.81;50.71;63.55;;
61321;Laerm;17737;52.586;13.284;2023-07-20T07:58:50;53.19;50.63;58.35;;
61321;Laerm;17737;52.586;13.284;2023-07-20T08:01:18;53.93;50.36;60.19;;
61321;Laerm;17737;52.586;13.284;2023-07-20T08:03:48;53.88;50.19;62.17;;
61321;Laerm;17737;52.586;13.284;2023-07-20T08:06:16;53.07;50.35;65.43;;
61321;Laerm;17737;52.586;13.284;2023-07-20T08:08:44;53.29;50.39;60.48;;
61321;Laerm;17737;52.586;13.284;2023-07-20T08:11:12;54.14;50.67;60.65;;
61321;Laerm;17737;52.586;13.284;2023-07-20T08:13:41;52.90;50.72;63.65;;
61321;Laerm;17737;52.586;13.284;2023-07-20T08:16:09;53.88;50.36;63.36;;
61321;Laerm;17737;52.586;13.284;2023-07-20T08:18:37;52.46;50.24;60.10;;
61321;Laerm;17737;52.586;13.284;2023-07-20T08:21:07;53.49;50.29;58.08;;
61321;Laerm;17737;52.586;13.284;2023-07-20T08:23:35;53.23;50.50;63.83;;
61321;Laerm;17737;52.586;13.284;2023-07-20T08:26:03;53.66;50.62;60.72;;
61321;Laerm;17737;52.586;13.284;2023-07-20T08:28:31;54.80;50.54;63.86;;
61321;Laerm;17737;52.586;13.284;2023-07-20T08:30:59;54.37;50.86;60.13;;
61321;Laerm;17737;52.586;13.284;2023-07-20T08:33:27;53.36;50.41;60.78;;
61321;Laerm;17737;52.586;13.284;2023-07-20T08:36:00;53.14;50.64;57.25;;
61321;Laerm;17737;52.586;13.284;2023-07-20T08:38:31;53.29;50.43;58.09;;
61321;Laerm;17737;52.586;13.284;2023-07-20T08:40:59;53.79;50.69;64.31;;
61321;Laerm;17737;52.586;13.284;2023-07-20T08:43:30;57.39;50.52;76.98;;
61321;Laerm;17737;52.586;13.284;2023-07-20T08:45:59;54.05;50.28;61.75;;
61321;Laerm;17737;52.586;13.284;2023-07-20T08:48:28;53.65;50.55;62.29;;
61321;Laerm;17737;52.586;13.284;2023-07-20T08:50:58;55.61;50.57;73.50;;
61321;Laerm;17737;52.586;13.284;2023-07-20T08:53:30;54.42;50.51;65.42;;
61321;Laerm;17737;52.586;13.284;2023-07-20T08:56:02;57.62;51.50;68.42;;
61321;Laerm;17737;52.586;13.284;2023-07-20T08:58:31;56.13;51.09;69.39;;
61321;Laerm;17737;52.586;13.284;2023-07-20T09:01:02;53.75;50.64;60.34;;
61321;Laerm;17737;52.586;13.284;2023-07-20T09:03:31;54.02;50.35;65.28;;
61321;Laerm;17737;52.586;13.284;2023-07-20T09:06:00;53.42;50.15;59.13;;
61321;Laerm;17737;52.586;13.284;2023-07-20T09:08:28;54.36;50.52;63.23;;
61321;Laerm;17737;52.586;13.284;2023-07-20T09:10:57;53.67;50.32;60.58;;
61321;Laerm;17737;52.586;13.284;2023-07-20T09:13:25;53.22;50.45;62.93;;
61321;Laerm;17737;52.586;13.284;2023-07-20T09:15:54;56.36;51.01;66.81;;
61321;Laerm;17737;52.586;13.284;2023-07-20T09:18:28;55.05;50.74;65.05;;
61321;Laerm;17737;52.586;13.284;2023-07-20T09:21:03;52.50;50.37;60.22;;
61321;Laerm;17737;52.586;13.284;2023-07-20T09:23:33;52.91;50.14;65.39;;
61321;Laerm;17737;52.586;13.284;2023-07-20T09:26:09;53.49;50.52;59.77;;
61321;Laerm;17737;52.586;13.284;2023-07-20T09:28:42;52.98;50.34;60.86;;
61321;Laerm;17737;52.586;13.284;2023-07-20T09:31:18;53.36;50.50;57.95;;
61321;Laerm;17737;52.586;13.284;2023-07-20T09:33:47;54.12;50.51;64.15;;
61321;Laerm;17737;52.586;13.284;2023-07-20T09:36:18;53.80;50.50;61.03;;
61321;Laerm;17737;52.586;13.284;2023-07-20T09:39:06;54.14;50.65;66.85;;
61321;Laerm;17737;52.586;13.284;2023-07-20T09:41:42;54.25;50.63;64.26;;
61321;Laerm;17737;52.586;13.284;2023-07-20T09:44:14;53.04;50.73;57.69;;
61321;Laerm;17737;52.586;13.284;2023-07-20T09:46:46;53.46;50.49;60.56;;
61321;Laerm;17737;52.586;13.284;2023-07-20T09:49:17;53.81;50.74;61.79;;
61321;Laerm;17737;52.586;13.284;2023-07-20T09:51:49;53.53;50.80;58.29;;
61321;Laerm;17737;52.586;13.284;2023-07-20T09:54:19;53.51;50.41;64.99;;
61321;Laerm;17737;52.586;13.284;2023-07-20T09:56:51;53.43;50.38;66.35;;
61321;Laerm;17737;52.586;13.284;2023-07-20T09:59:19;53.45;50.50;59.66;;
61321;Laerm;17737;52.586;13.284;2023-07-20T10:01:49;53.31;50.60;60.20;;
61321;Laerm;17737;52.586;13.284;2023-07-20T10:04:21;53.43;50.61;64.48;;
61321;Laerm;17737;52.586;13.284;2023-07-20T10:06:54;53.31;50.50;63.10;;
61321;Laerm;17737;52.586;13.284;2023-07-20T10:09:24;53.63;50.49;59.85;;
61321;Laerm;17737;52.586;13.284;2023-07-20T10:11:58;53.22;50.59;59.70;;
61321;Laerm;17737;52.586;13.284;2023-07-20T10:14:52;53.29;50.46;65.70;;
61321;Laerm;17737;52.586;13.284;2023-07-20T10:17:26;53.23;50.69;58.06;;
61321;Laerm;17737;52.586;13.284;2023-07-20T10:19:57;54.71;50.63;76.27;;
61321;Laerm;17737;52.586;13.284;2023-07-20T10:22:35;53.63;50.45;63.17;;
61321;Laerm;17737;52.586;13.284;2023-07-20T10:25:09;52.56;50.53;64.32;;
61321;Laerm;17737;52.586;13.284;2023-07-20T10:27:38;53.29;50.48;62.93;;
61321;Laerm;17737;52.586;13.284;2023-07-20T10:30:08;53.43;51.32;59.06;;
61321;Laerm;17737;52.586;13.284;2023-07-20T10:32:36;53.44;50.81;64.03;;
61321;Laerm;17737;52.586;13.284;2023-07-20T10:35:13;53.27;50.74;64.20;;
61321;Laerm;17737;52.586;13.284;2023-07-20T10:38:00;52.81;50.33;57.40;;
61321;Laerm;17737;52.586;13.284;2023-07-20T10:40:31;53.33;50.67;56.58;;
61321;Laerm;17737;52.586;13.284;2023-07-20T10:43:04;52.72;50.48;57.54;;
61321;Laerm;17737;52.586;13.284;2023-07-20T10:48:16;53.37;50.83;58.98;;
61321;Laerm;17737;52.586;13.284;2023-07-20T10:51:10;52.86;50.40;57.48;;
61321;Laerm;17737;52.586;13.284;2023-07-20T10:53:38;53.11;50.45;57.60;;
61321;Laerm;17737;52.586;13.284;2023-07-20T10:56:08;54.17;50.64;63.07;;
61321;Laerm;17737;52.586;13.284;2023-07-20T10:58:41;53.84;50.39;60.72;;
61321;Laerm;17737;52.586;13.284;2023-07-20T11:01:14;52.69;50.39;58.42;;
61321;Laerm;17737;52.586;13.284;2023-07-20T11:03:43;52.63;50.14;58.91;;
61321;Laerm;17737;52.586;13.284;2023-07-20T11:06:32;53.21;50.70;58.18;;
61321;Laerm;17737;52.586;13.284;2023-07-20T11:09:07;54.06;50.66;62.20;;
61321;Laerm;17737;52.586;13.284;2023-07-20T11:11:39;53.53;50.59;59.71;;
61321;Laerm;17737;52.586;13.284;2023-07-20T11:14:10;53.94;50.66;59.24;;
61321;Laerm;17737;52.586;13.284;2023-07-20T11:16:42;53.24;50.30;57.13;;
61321;Laerm;17737;52.586;13.284;2023-07-20T11:19:15;53.67;50.35;60.23;;
61321;Laerm;17737;52.586;13.284;2023-07-20T11:21:50;53.09;50.45;58.49;;
61321;Laerm;17737;52.586;13.284;2023-07-20T11:24:29;53.34;50.51;59.91;;
61321;Laerm;17737;52.586;13.284;2023-07-20T11:26:58;55.61;50.74;65.66;;
61321;Laerm;17737;52.586;13.284;2023-07-20T11:29:28;54.72;51.31;63.25;;
61321;Laerm;17737;52.586;13.284;2023-07-20T11:32:00;54.01;51.67;71.34;;
61321;Laerm;17737;52.586;13.284;2023-07-20T11:34:33;54.83;51.45;66.20;;
61321;Laerm;17737;52.586;13.284;2023-07-20T11:37:02;53.79;51.60;60.77;;
61321;Laerm;17737;52.586;13.284;2023-07-20T11:39:34;54.56;51.54;68.94;;
61321;Laerm;17737;52.586;13.284;2023-07-20T11:42:03;56.20;52.42;59.87;;
61321;Laerm;17737;52.586;13.284;2023-07-20T11:44:34;56.46;53.28;67.70;;
61321;Laerm;17737;52.586;13.284;2023-07-20T11:47:04;56.87;53.37;73.48;;
61321;Laerm;17737;52.586;13.284;2023-07-20T11:49:36;56.60;53.56;71.52;;
61321;Laerm;17737;52.586;13.284;2023-07-20T11:52:06;56.67;51.82;71.10;;
61321;Laerm;17737;52.586;13.284;2023-07-20T11:54:35;54.77;51.48;69.70;;
61321;Laerm;17737;52.586;13.284;2023-07-20T11:57:05;54.31;51.85;63.03;;
61321;Laerm;17737;52.586;13.284;2023-07-20T11:59:35;53.27;50.99;61.44;;
61321;Laerm;17737;52.586;13.284;2023-07-20T12:02:05;53.50;50.61;67.47;;
61321;Laerm;17737;52.586;13.284;2023-07-20T12:04:33;54.06;50.92;66.53;;
61321;Laerm;17737;52.586;13.284;2023-07-20T12:07:01;61.21;54.78;66.91;;
61321;Laerm;17737;52.586;13.284;2023-07-20T12:09:29;55.44;51.16;64.55;;
61321;Laerm;17737;52.586;13.284;2023-07-20T12:12:15;53.12;50.81;57.59;;
61321;Laerm;17737;52.586;13.284;2023-07-20T12:14:45;53.57;50.89;58.52;;
61321;Laerm;17737;52.586;13.284;2023-07-20T12:17:13;53.02;50.56;63.86;;
61321;Laerm;17737;52.586;13.284;2023-07-20T12:19:41;54.73;50.80;62.35;;
61321;Laerm;17737;52.586;13.284;2023-07-20T12:22:09;57.21;50.87;65.43;;
61321;Laerm;17737;52.586;13.284;2023-07-20T12:24:38;59.35;51.10;70.45;;
61321;Laerm;17737;52.586;13.284;2023-07-20T12:27:06;53.80;50.58;61.48;;
61321;Laerm;17737;52.586;13.284;2023-07-20T12:29:34;53.28;50.80;58.88;;
61321;Laerm;17737;52.586;13.284;2023-07-20T12:32:06;52.72;50.53;64.40;;
61321;Laerm;17737;52.586;13.284;2023-07-20T12:34:34;54.56;50.89;61.55;;
61321;Laerm;17737;52.586;13.284;2023-07-20T12:37:04;54.88;50.95;61.65;;
61321;Laerm;17737;52.586;13.284;2023-07-20T12:39:32;53.28;50.68;60.64;;
61321;Laerm;17737;52.586;13.284;2023-07-20T12:42:00;55.27;50.83;68.52;;
61321;Laerm;17737;52.586;13.284;2023-07-20T12:44:28;52.79;50.61;58.45;;
61321;Laerm;17737;52.586;13.284;2023-07-20T12:46:56;53.48;50.36;61.52;;
61321;Laerm;17737;52.586;13.284;2023-07-20T12:49:26;54.57;50.56;61.64;;
61321;Laerm;17737;52.586;13.284;2023-07-20T12:51:54;54.29;50.62;62.73;;
61321;Laerm;17737;52.586;13.284;2023-07-20T12:54:22;54.48;50.65;60.21;;
61321;Laerm;17737;52.586;13.284;2023-07-20T12:56:50;53.61;50.56;59.39;;
61321;Laerm;17737;52.586;13.284;2023-07-20T12:59:21;53.62;50.44;60.08;;
61321;Laerm;17737;52.586;13.284;2023-07-20T13:01:49;53.35;50.35;64.94;;
61321;Laerm;17737;52.586;13.284;2023-07-20T13:04:17;55.11;49.92;70.19;;
61321;Laerm;17737;52.586;13.284;2023-07-20T13:06:46;54.73;50.71;74.81;;
61321;Laerm;17737;52.586;13.284;2023-07-20T13:09:14;52.72;50.42;63.65;;
61321;Laerm;17737;52.586;13.284;2023-07-20T13:11:42;54.16;50.81;60.34;;
61321;Laerm;17737;52.586;13.284;2023-07-20T13:14:10;53.45;50.44;60.28;;
61321;Laerm;17737;52.586;13.284;2023-07-20T13:16:39;53.71;50.29;60.09;;
61321;Laerm;17737;52.586;13.284;2023-07-20T13:19:07;53.78;50.55;59.62;;
61321;Laerm;17737;52.586;13.284;2023-07-20T13:21:35;53.40;50.51;59.18;;
61321;Laerm;17737;52.586;13.284;2023-07-20T13:24:05;53.80;50.49;62.37;;
61321;Laerm;17737;52.586;13.284;2023-07-20T13:26:33;53.25;50.42;57.95;;
61321;Laerm;17737;52.586;13.284;2023-07-20T13:29:02;53.78;50.57;60.52;;
61321;Laerm;17737;52.586;13.284;2023-07-20T13:31:30;52.72;50.28;57.65;;
61321;Laerm;17737;52.586;13.284;2023-07-20T13:34:01;54.53;50.10;63.97;;
61321;Laerm;17737;52.586;13.284;2023-07-20T13:36:30;53.58;50.19;62.61;;
61321;Laerm;17737;52.586;13.284;2023-07-20T13:38:58;54.96;50.48;65.07;;
61321;Laerm;17737;52.586;13.284;2023-07-20T13:41:27;53.51;50.57;59.76;;
61321;Laerm;17737;52.586;13.284;2023-07-20T13:43:56;53.90;50.41;60.65;;
61321;Laerm;17737;52.586;13.284;2023-07-20T13:46:24;53.26;50.71;57.14;;
61321;Laerm;17737;52.586;13.284;2023-07-20T13:48:55;54.13;50.27;64.32;;